Terminal Aerodrome Forecast
Issued by NWS Sterling, VA

Current Version | Previous Version | Graphics & Text | Print | Product List | Glossary On
Versions: 1 2 3 4 5 6 7 8 9 10 11 12 13 14 15 16 17 18 19 20 21 22 23 24 25
000
FTUS41 KLWX 290856 AAA
TAFDCA
TAF AMD
KDCA 290856Z 2909/3006 06010KT P6SM SCT030 BKN060
     FM291700 11008KT P6SM BKN040
     FM292000 15009KT P6SM VCTS BKN040CB
     FM292300 16007KT P6SM SCT040=

USA.gov is the U.S. government's official web portal to all federal, state and local government web resources and services.